sensor_id;sensor_type;location;lat;lon;timestamp;P1;durP1;ratioP1;P2;durP2;ratioP2
24151;SDS011;12311;50.866;4.332;2023-12-22T00:00:27;7.72;;;1.27;;
24151;SDS011;12311;50.866;4.332;2023-12-22T00:02:53;6.90;;;1.10;;
24151;SDS011;12311;50.866;4.332;2023-12-22T00:05:18;9.00;;;1.73;;
24151;SDS011;12311;50.866;4.332;2023-12-22T00:07:44;5.88;;;1.50;;
24151;SDS011;12311;50.866;4.332;2023-12-22T00:10:09;10.23;;;2.17;;
24151;SDS011;12311;50.866;4.332;2023-12-22T00:12:35;5.55;;;0.90;;
24151;SDS011;12311;50.866;4.332;2023-12-22T00:15:03;5.20;;;1.25;;
24151;SDS011;12311;50.866;4.332;2023-12-22T00:17:30;2.63;;;0.90;;
24151;SDS011;12311;50.866;4.332;2023-12-22T00:19:55;4.63;;;1.20;;
24151;SDS011;12311;50.866;4.332;2023-12-22T00:22:24;6.32;;;1.10;;
24151;SDS011;12311;50.866;4.332;2023-12-22T00:24:50;6.35;;;0.98;;
24151;SDS011;12311;50.866;4.332;2023-12-22T00:27:16;8.57;;;1.40;;
24151;SDS011;12311;50.866;4.332;2023-12-22T00:29:42;6.70;;;1.17;;
24151;SDS011;12311;50.866;4.332;2023-12-22T00:32:07;3.30;;;0.65;;
24151;SDS011;12311;50.866;4.332;2023-12-22T00:34:34;7.22;;;0.80;;
24151;SDS011;12311;50.866;4.332;2023-12-22T00:37:00;6.13;;;0.98;;
24151;SDS011;12311;50.866;4.332;2023-12-22T00:39:26;11.05;;;1.27;;
24151;SDS011;12311;50.866;4.332;2023-12-22T00:41:52;8.25;;;1.65;;
24151;SDS011;12311;50.866;4.332;2023-12-22T00:44:18;4.53;;;1.70;;
24151;SDS011;12311;50.866;4.332;2023-12-22T00:46:44;4.63;;;1.08;;
24151;SDS011;12311;50.866;4.332;2023-12-22T00:49:09;6.18;;;1.10;;
24151;SDS011;12311;50.866;4.332;2023-12-22T00:51:35;9.77;;;1.52;;
24151;SDS011;12311;50.866;4.332;2023-12-22T00:54:00;4.55;;;1.63;;
24151;SDS011;12311;50.866;4.332;2023-12-22T00:56:26;5.13;;;1.65;;
24151;SDS011;12311;50.866;4.332;2023-12-22T00:58:52;8.45;;;1.55;;
24151;SDS011;12311;50.866;4.332;2023-12-22T01:01:18;8.10;;;1.58;;
24151;SDS011;12311;50.866;4.332;2023-12-22T01:03:44;5.05;;;1.05;;
24151;SDS011;12311;50.866;4.332;2023-12-22T01:06:09;12.20;;;2.08;;
24151;SDS011;12311;50.866;4.332;2023-12-22T01:08:36;8.48;;;1.30;;
24151;SDS011;12311;50.866;4.332;2023-12-22T01:11:03;8.10;;;1.52;;
24151;SDS011;12311;50.866;4.332;2023-12-22T01:13:28;7.72;;;1.75;;
24151;SDS011;12311;50.866;4.332;2023-12-22T01:15:54;8.30;;;1.60;;
24151;SDS011;12311;50.866;4.332;2023-12-22T01:18:20;11.20;;;1.80;;
24151;SDS011;12311;50.866;4.332;2023-12-22T01:20:45;8.27;;;1.30;;
24151;SDS011;12311;50.866;4.332;2023-12-22T01:23:11;10.18;;;1.52;;
24151;SDS011;12311;50.866;4.332;2023-12-22T01:25:37;7.35;;;2.17;;
24151;SDS011;12311;50.866;4.332;2023-12-22T01:28:02;6.40;;;1.40;;
24151;SDS011;12311;50.866;4.332;2023-12-22T01:30:28;11.57;;;1.70;;
24151;SDS011;12311;50.866;4.332;2023-12-22T01:32:54;12.45;;;2.08;;
24151;SDS011;12311;50.866;4.332;2023-12-22T01:35:20;6.18;;;1.90;;
24151;SDS011;12311;50.866;4.332;2023-12-22T01:37:45;8.07;;;1.90;;
24151;SDS011;12311;50.866;4.332;2023-12-22T01:40:13;9.70;;;1.65;;
24151;SDS011;12311;50.866;4.332;2023-12-22T01:42:38;5.20;;;1.45;;
24151;SDS011;12311;50.866;4.332;2023-12-22T01:45:05;7.00;;;1.77;;
24151;SDS011;12311;50.866;4.332;2023-12-22T01:47:31;14.65;;;1.85;;
24151;SDS011;12311;50.866;4.332;2023-12-22T01:49:57;8.05;;;1.23;;
24151;SDS011;12311;50.866;4.332;2023-12-22T01:52:24;10.80;;;1.73;;
24151;SDS011;12311;50.866;4.332;2023-12-22T01:54:51;6.22;;;1.25;;
24151;SDS011;12311;50.866;4.332;2023-12-22T01:57:17;10.05;;;1.80;;
24151;SDS011;12311;50.866;4.332;2023-12-22T01:59:45;9.48;;;1.77;;
24151;SDS011;12311;50.866;4.332;2023-12-22T02:02:13;8.40;;;1.33;;
24151;SDS011;12311;50.866;4.332;2023-12-22T02:04:39;6.80;;;1.83;;
24151;SDS011;12311;50.866;4.332;2023-12-22T02:07:05;11.40;;;2.40;;
24151;SDS011;12311;50.866;4.332;2023-12-22T02:09:34;9.63;;;1.88;;
24151;SDS011;12311;50.866;4.332;2023-12-22T02:12:00;11.77;;;1.77;;
24151;SDS011;12311;50.866;4.332;2023-12-22T02:14:26;8.98;;;1.73;;
24151;SDS011;12311;50.866;4.332;2023-12-22T02:16:55;12.32;;;1.88;;
24151;SDS011;12311;50.866;4.332;2023-12-22T02:19:42;7.72;;;2.38;;
24151;SDS011;12311;50.866;4.332;2023-12-22T02:22:10;16.83;;;1.80;;
24151;SDS011;12311;50.866;4.332;2023-12-22T02:24:37;7.55;;;2.38;;
24151;SDS011;12311;50.866;4.332;2023-12-22T02:27:11;6.78;;;1.30;;
24151;SDS011;12311;50.866;4.332;2023-12-22T02:29:45;8.93;;;1.90;;
24151;SDS011;12311;50.866;4.332;2023-12-22T02:32:25;7.68;;;1.23;;
24151;SDS011;12311;50.866;4.332;2023-12-22T02:34:57;10.85;;;1.67;;
24151;SDS011;12311;50.866;4.332;2023-12-22T02:37:27;9.63;;;1.83;;
24151;SDS011;12311;50.866;4.332;2023-12-22T02:39:54;8.07;;;1.40;;
24151;SDS011;12311;50.866;4.332;2023-12-22T02:42:20;6.75;;;1.10;;
24151;SDS011;12311;50.866;4.332;2023-12-22T02:44:49;7.72;;;1.42;;
24151;SDS011;12311;50.866;4.332;2023-12-22T02:47:16;4.88;;;1.08;;
24151;SDS011;12311;50.866;4.332;2023-12-22T02:49:41;3.50;;;1.17;;
24151;SDS011;12311;50.866;4.332;2023-12-22T02:52:07;8.60;;;1.40;;
24151;SDS011;12311;50.866;4.332;2023-12-22T02:54:33;5.38;;;0.80;;
24151;SDS011;12311;50.866;4.332;2023-12-22T02:56:59;6.53;;;1.05;;
24151;SDS011;12311;50.866;4.332;2023-12-22T02:59:25;4.60;;;1.02;;
24151;SDS011;12311;50.866;4.332;2023-12-22T03:01:52;9.20;;;1.20;;
24151;SDS011;12311;50.866;4.332;2023-12-22T03:04:18;3.47;;;0.80;;
24151;SDS011;12311;50.866;4.332;2023-12-22T03:06:43;4.97;;;1.10;;
24151;SDS011;12311;50.866;4.332;2023-12-22T03:09:09;5.75;;;1.08;;
24151;SDS011;12311;50.866;4.332;2023-12-22T03:11:35;5.93;;;0.90;;
24151;SDS011;12311;50.866;4.332;2023-12-22T03:14:00;9.55;;;1.00;;
24151;SDS011;12311;50.866;4.332;2023-12-22T03:16:26;6.60;;;1.00;;
24151;SDS011;12311;50.866;4.332;2023-12-22T03:18:52;5.43;;;1.58;;
24151;SDS011;12311;50.866;4.332;2023-12-22T03:21:18;5.57;;;1.27;;
24151;SDS011;12311;50.866;4.332;2023-12-22T03:23:44;5.57;;;1.27;;
24151;SDS011;12311;50.866;4.332;2023-12-22T03:26:10;6.90;;;1.42;;
24151;SDS011;12311;50.866;4.332;2023-12-22T03:28:35;7.80;;;1.60;;
24151;SDS011;12311;50.866;4.332;2023-12-22T03:31:01;7.60;;;1.50;;
24151;SDS011;12311;50.866;4.332;2023-12-22T03:33:27;5.63;;;1.70;;
24151;SDS011;12311;50.866;4.332;2023-12-22T03:35:53;7.78;;;1.60;;
24151;SDS011;12311;50.866;4.332;2023-12-22T03:38:18;9.02;;;2.15;;
24151;SDS011;12311;50.866;4.332;2023-12-22T03:40:44;7.85;;;1.98;;
24151;SDS011;12311;50.866;4.332;2023-12-22T03:43:10;7.07;;;1.55;;
24151;SDS011;12311;50.866;4.332;2023-12-22T03:45:36;10.38;;;1.70;;
24151;SDS011;12311;50.866;4.332;2023-12-22T03:48:01;6.93;;;2.10;;
24151;SDS011;12311;50.866;4.332;2023-12-22T03:50:27;6.65;;;1.08;;
24151;SDS011;12311;50.866;4.332;2023-12-22T03:52:53;5.85;;;1.20;;
24151;SDS011;12311;50.866;4.332;2023-12-22T03:55:18;7.53;;;1.20;;
24151;SDS011;12311;50.866;4.332;2023-12-22T03:57:44;4.72;;;1.60;;
24151;SDS011;12311;50.866;4.332;2023-12-22T04:00:10;6.78;;;1.10;;
24151;SDS011;12311;50.866;4.332;2023-12-22T04:02:36;5.53;;;1.15;;
24151;SDS011;12311;50.866;4.332;2023-12-22T04:05:01;4.15;;;1.10;;
24151;SDS011;12311;50.866;4.332;2023-12-22T04:07:27;5.30;;;1.15;;
24151;SDS011;12311;50.866;4.332;2023-12-22T04:09:53;7.45;;;1.52;;
24151;SDS011;12311;50.866;4.332;2023-12-22T04:12:19;5.47;;;1.25;;
24151;SDS011;12311;50.866;4.332;2023-12-22T04:14:44;6.57;;;1.02;;
24151;SDS011;12311;50.866;4.332;2023-12-22T04:17:10;4.43;;;1.30;;
24151;SDS011;12311;50.866;4.332;2023-12-22T04:19:36;10.02;;;1.63;;
24151;SDS011;12311;50.866;4.332;2023-12-22T04:22:01;8.88;;;1.35;;
24151;SDS011;12311;50.866;4.332;2023-12-22T04:24:27;7.28;;;1.20;;
24151;SDS011;12311;50.866;4.332;2023-12-22T04:26:53;6.32;;;1.50;;
24151;SDS011;12311;50.866;4.332;2023-12-22T04:29:19;7.32;;;1.42;;
24151;SDS011;12311;50.866;4.332;2023-12-22T04:31:44;9.65;;;1.40;;
24151;SDS011;12311;50.866;4.332;2023-12-22T04:34:13;8.85;;;1.20;;
24151;SDS011;12311;50.866;4.332;2023-12-22T04:36:39;7.03;;;1.63;;
24151;SDS011;12311;50.866;4.332;2023-12-22T04:39:05;8.50;;;1.30;;
24151;SDS011;12311;50.866;4.332;2023-12-22T04:41:30;7.68;;;1.25;;
24151;SDS011;12311;50.866;4.332;2023-12-22T04:43:56;6.88;;;1.42;;
24151;SDS011;12311;50.866;4.332;2023-12-22T04:46:22;9.40;;;1.52;;
24151;SDS011;12311;50.866;4.332;2023-12-22T04:48:47;7.15;;;1.50;;
24151;SDS011;12311;50.866;4.332;2023-12-22T04:51:13;12.45;;;1.60;;
24151;SDS011;12311;50.866;4.332;2023-12-22T04:53:39;7.38;;;1.45;;
24151;SDS011;12311;50.866;4.332;2023-12-22T04:56:04;8.52;;;1.42;;
24151;SDS011;12311;50.866;4.332;2023-12-22T04:58:30;8.15;;;1.45;;
24151;SDS011;12311;50.866;4.332;2023-12-22T05:00:57;7.22;;;1.85;;
24151;SDS011;12311;50.866;4.332;2023-12-22T05:03:24;13.80;;;1.48;;
24151;SDS011;12311;50.866;4.332;2023-12-22T05:05:49;6.30;;;1.40;;
24151;SDS011;12311;50.866;4.332;2023-12-22T05:08:15;6.75;;;1.60;;
24151;SDS011;12311;50.866;4.332;2023-12-22T05:10:41;17.17;;;2.42;;
24151;SDS011;12311;50.866;4.332;2023-12-22T05:13:07;8.68;;;1.77;;
24151;SDS011;12311;50.866;4.332;2023-12-22T05:15:32;10.10;;;1.55;;
24151;SDS011;12311;50.866;4.332;2023-12-22T05:17:58;13.55;;;1.92;;
24151;SDS011;12311;50.866;4.332;2023-12-22T05:20:24;8.18;;;1.83;;
24151;SDS011;12311;50.866;4.332;2023-12-22T05:22:49;12.43;;;1.95;;
24151;SDS011;12311;50.866;4.332;2023-12-22T05:25:15;11.48;;;2.05;;
24151;SDS011;12311;50.866;4.332;2023-12-22T05:27:41;7.55;;;2.25;;
24151;SDS011;12311;50.866;4.332;2023-12-22T05:30:08;12.85;;;2.00;;
24151;SDS011;12311;50.866;4.332;2023-12-22T05:32:34;19.15;;;2.72;;
24151;SDS011;12311;50.866;4.332;2023-12-22T05:34:59;13.52;;;2.90;;
24151;SDS011;12311;50.866;4.332;2023-12-22T05:37:25;9.98;;;1.95;;
24151;SDS011;12311;50.866;4.332;2023-12-22T05:39:51;9.18;;;2.00;;
24151;SDS011;12311;50.866;4.332;2023-12-22T05:42:17;12.25;;;2.10;;
24151;SDS011;12311;50.866;4.332;2023-12-22T05:44:42;12.00;;;2.53;;
24151;SDS011;12311;50.866;4.332;2023-12-22T05:47:08;11.30;;;2.20;;
24151;SDS011;12311;50.866;4.332;2023-12-22T05:49:35;11.98;;;2.17;;
24151;SDS011;12311;50.866;4.332;2023-12-22T05:52:01;14.57;;;2.63;;
24151;SDS011;12311;50.866;4.332;2023-12-22T05:54:27;6.25;;;1.38;;
24151;SDS011;12311;50.866;4.332;2023-12-22T05:56:53;9.50;;;1.92;;
24151;SDS011;12311;50.866;4.332;2023-12-22T05:59:19;15.32;;;1.88;;
24151;SDS011;12311;50.866;4.332;2023-12-22T06:01:44;15.13;;;2.25;;
24151;SDS011;12311;50.866;4.332;2023-12-22T06:04:10;16.38;;;2.60;;
24151;SDS011;12311;50.866;4.332;2023-12-22T06:06:36;12.27;;;1.95;;
24151;SDS011;12311;50.866;4.332;2023-12-22T06:09:03;12.00;;;1.88;;
24151;SDS011;12311;50.866;4.332;2023-12-22T06:11:29;12.10;;;2.05;;
24151;SDS011;12311;50.866;4.332;2023-12-22T06:13:55;12.88;;;1.90;;
24151;SDS011;12311;50.866;4.332;2023-12-22T06:16:21;13.52;;;1.75;;
24151;SDS011;12311;50.866;4.332;2023-12-22T06:18:47;13.30;;;2.03;;
24151;SDS011;12311;50.866;4.332;2023-12-22T06:21:13;11.50;;;1.63;;
24151;SDS011;12311;50.866;4.332;2023-12-22T06:23:40;10.40;;;1.77;;
24151;SDS011;12311;50.866;4.332;2023-12-22T06:26:09;10.57;;;1.80;;
24151;SDS011;12311;50.866;4.332;2023-12-22T06:28:38;12.30;;;1.80;;
24151;SDS011;12311;50.866;4.332;2023-12-22T06:31:05;9.75;;;1.45;;
24151;SDS011;12311;50.866;4.332;2023-12-22T06:33:31;12.15;;;1.70;;
24151;SDS011;12311;50.866;4.332;2023-12-22T06:35:57;8.90;;;1.80;;
24151;SDS011;12311;50.866;4.332;2023-12-22T06:38:23;5.15;;;1.58;;
24151;SDS011;12311;50.866;4.332;2023-12-22T06:40:48;7.88;;;1.42;;
24151;SDS011;12311;50.866;4.332;2023-12-22T06:43:15;7.60;;;1.50;;
24151;SDS011;12311;50.866;4.332;2023-12-22T06:45:41;5.82;;;1.30;;
24151;SDS011;12311;50.866;4.332;2023-12-22T06:48:07;10.30;;;1.08;;
24151;SDS011;12311;50.866;4.332;2023-12-22T06:50:34;7.50;;;1.27;;
24151;SDS011;12311;50.866;4.332;2023-12-22T06:53:02;4.72;;;1.10;;
24151;SDS011;12311;50.866;4.332;2023-12-22T06:55:28;5.75;;;1.20;;
24151;SDS011;12311;50.866;4.332;2023-12-22T06:57:55;5.63;;;0.95;;
24151;SDS011;12311;50.866;4.332;2023-12-22T07:00:21;6.55;;;1.10;;
24151;SDS011;12311;50.866;4.332;2023-12-22T07:02:47;2.67;;;0.90;;
24151;SDS011;12311;50.866;4.332;2023-12-22T07:07:47;3.17;;;0.95;;
24151;SDS011;12311;50.866;4.332;2023-12-22T07:10:13;3.65;;;0.90;;
24151;SDS011;12311;50.866;4.332;2023-12-22T07:12:39;4.75;;;1.15;;
24151;SDS011;12311;50.866;4.332;2023-12-22T07:15:07;5.55;;;1.00;;
24151;SDS011;12311;50.866;4.332;2023-12-22T07:17:33;4.45;;;0.80;;
24151;SDS011;12311;50.866;4.332;2023-12-22T07:20:00;3.47;;;0.93;;
24151;SDS011;12311;50.866;4.332;2023-12-22T07:22:28;8.15;;;0.90;;
24151;SDS011;12311;50.866;4.332;2023-12-22T07:24:54;3.97;;;0.77;;
24151;SDS011;12311;50.866;4.332;2023-12-22T07:27:20;6.82;;;1.20;;
24151;SDS011;12311;50.866;4.332;2023-12-22T07:29:46;2.88;;;0.98;;
24151;SDS011;12311;50.866;4.332;2023-12-22T07:32:12;3.35;;;1.10;;
24151;SDS011;12311;50.866;4.332;2023-12-22T07:34:37;3.38;;;1.17;;
24151;SDS011;12311;50.866;4.332;2023-12-22T07:37:03;4.10;;;1.00;;
24151;SDS011;12311;50.866;4.332;2023-12-22T07:39:30;6.18;;;1.25;;
24151;SDS011;12311;50.866;4.332;2023-12-22T07:41:55;2.22;;;0.80;;
24151;SDS011;12311;50.866;4.332;2023-12-22T07:44:21;1.92;;;0.82;;
24151;SDS011;12311;50.866;4.332;2023-12-22T07:46:55;2.30;;;0.93;;
24151;SDS011;12311;50.866;4.332;2023-12-22T07:49:24;6.63;;;1.10;;
24151;SDS011;12311;50.866;4.332;2023-12-22T07:51:51;2.65;;;0.70;;
24151;SDS011;12311;50.866;4.332;2023-12-22T07:54:17;1.05;;;0.70;;
24151;SDS011;12311;50.866;4.332;2023-12-22T07:56:43;4.13;;;0.90;;
24151;SDS011;12311;50.866;4.332;2023-12-22T07:59:09;4.40;;;0.80;;
24151;SDS011;12311;50.866;4.332;2023-12-22T08:01:34;2.80;;;0.70;;
24151;SDS011;12311;50.866;4.332;2023-12-22T08:04:00;1.45;;;0.88;;
24151;SDS011;12311;50.866;4.332;2023-12-22T08:06:26;1.52;;;0.65;;
24151;SDS011;12311;50.866;4.332;2023-12-22T08:08:51;1.98;;;0.68;;
24151;SDS011;12311;50.866;4.332;2023-12-22T08:11:17;1.75;;;0.88;;
24151;SDS011;12311;50.866;4.332;2023-12-22T08:13:44;1.20;;;0.80;;
24151;SDS011;12311;50.866;4.332;2023-12-22T08:16:10;1.70;;;0.85;;
24151;SDS011;12311;50.866;4.332;2023-12-22T08:18:36;3.88;;;0.80;;
24151;SDS011;12311;50.866;4.332;2023-12-22T08:21:01;3.00;;;1.10;;
24151;SDS011;12311;50.866;4.332;2023-12-22T08:23:27;2.05;;;0.80;;
24151;SDS011;12311;50.866;4.332;2023-12-22T08:25:54;2.95;;;0.90;;
24151;SDS011;12311;50.866;4.332;2023-12-22T08:28:19;2.55;;;0.70;;
24151;SDS011;12311;50.866;4.332;2023-12-22T08:30:45;1.60;;;0.88;;
24151;SDS011;12311;50.866;4.332;2023-12-22T08:33:10;3.22;;;1.02;;
24151;SDS011;12311;50.866;4.332;2023-12-22T08:35:36;2.25;;;1.13;;
24151;SDS011;12311;50.866;4.332;2023-12-22T08:38:02;2.50;;;0.82;;
24151;SDS011;12311;50.866;4.332;2023-12-22T08:40:28;2.83;;;0.93;;
24151;SDS011;12311;50.866;4.332;2023-12-22T08:42:53;2.85;;;1.10;;
24151;SDS011;12311;50.866;4.332;2023-12-22T08:45:20;3.25;;;1.08;;
24151;SDS011;12311;50.866;4.332;2023-12-22T08:47:46;1.40;;;1.08;;
24151;SDS011;12311;50.866;4.332;2023-12-22T08:50:12;2.92;;;1.30;;
24151;SDS011;12311;50.866;4.332;2023-12-22T08:52:38;3.17;;;1.30;;
24151;SDS011;12311;50.866;4.332;2023-12-22T08:55:04;2.22;;;1.10;;
24151;SDS011;12311;50.866;4.332;2023-12-22T08:57:30;3.75;;;1.15;;
24151;SDS011;12311;50.866;4.332;2023-12-22T08:59:56;2.15;;;1.50;;
24151;SDS011;12311;50.866;4.332;2023-12-22T09:02:22;3.83;;;1.52;;
24151;SDS011;12311;50.866;4.332;2023-12-22T09:04:48;2.15;;;1.27;;
24151;SDS011;12311;50.866;4.332;2023-12-22T09:07:13;2.20;;;1.30;;
24151;SDS011;12311;50.866;4.332;2023-12-22T09:09:39;2.05;;;1.00;;
24151;SDS011;12311;50.866;4.332;2023-12-22T09:12:05;1.92;;;0.98;;
24151;SDS011;12311;50.866;4.332;2023-12-22T09:14:31;4.57;;;1.05;;
24151;SDS011;12311;50.866;4.332;2023-12-22T09:16:58;3.72;;;1.13;;
24151;SDS011;12311;50.866;4.332;2023-12-22T09:19:24;4.10;;;1.15;;
24151;SDS011;12311;50.866;4.332;2023-12-22T09:21:49;3.20;;;1.23;;
24151;SDS011;12311;50.866;4.332;2023-12-22T09:24:15;2.92;;;1.05;;
24151;SDS011;12311;50.866;4.332;2023-12-22T09:26:42;2.42;;;1.10;;
24151;SDS011;12311;50.866;4.332;2023-12-22T09:29:07;2.75;;;1.10;;
24151;SDS011;12311;50.866;4.332;2023-12-22T09:31:33;2.47;;;0.95;;
24151;SDS011;12311;50.866;4.332;2023-12-22T09:33:58;1.30;;;0.70;;
24151;SDS011;12311;50.866;4.332;2023-12-22T09:36:24;1.88;;;0.70;;
24151;SDS011;12311;50.866;4.332;2023-12-22T09:38:50;1.35;;;0.80;;
24151;SDS011;12311;50.866;4.332;2023-12-22T09:41:15;3.75;;;1.13;;
24151;SDS011;12311;50.866;4.332;2023-12-22T09:43:41;3.17;;;0.60;;
24151;SDS011;12311;50.866;4.332;2023-12-22T09:46:12;1.17;;;0.70;;
24151;SDS011;12311;50.866;4.332;2023-12-22T09:48:39;3.05;;;0.90;;
24151;SDS011;12311;50.866;4.332;2023-12-22T09:51:05;1.25;;;0.70;;
24151;SDS011;12311;50.866;4.332;2023-12-22T09:53:33;4.45;;;1.10;;
24151;SDS011;12311;50.866;4.332;2023-12-22T09:56:00;2.13;;;0.70;;
24151;SDS011;12311;50.866;4.332;2023-12-22T09:58:26;2.88;;;1.23;;
24151;SDS011;12311;50.866;4.332;2023-12-22T10:00:52;2.30;;;0.90;;
24151;SDS011;12311;50.866;4.332;2023-12-22T10:03:18;1.58;;;0.70;;
24151;SDS011;12311;50.866;4.332;2023-12-22T10:05:45;2.17;;;1.02;;
24151;SDS011;12311;50.866;4.332;2023-12-22T10:08:11;1.88;;;0.90;;
24151;SDS011;12311;50.866;4.332;2023-12-22T10:10:39;3.60;;;1.00;;
24151;SDS011;12311;50.866;4.332;2023-12-22T10:13:08;1.70;;;0.77;;
24151;SDS011;12311;50.866;4.332;2023-12-22T10:15:36;1.25;;;0.80;;
24151;SDS011;12311;50.866;4.332;2023-12-22T10:18:06;1.88;;;0.80;;
24151;SDS011;12311;50.866;4.332;2023-12-22T10:20:32;2.00;;;0.70;;
24151;SDS011;12311;50.866;4.332;2023-12-22T10:22:58;2.72;;;1.00;;
24151;SDS011;12311;50.866;4.332;2023-12-22T10:25:27;3.00;;;0.80;;
24151;SDS011;12311;50.866;4.332;2023-12-22T10:27:54;1.63;;;0.80;;
24151;SDS011;12311;50.866;4.332;2023-12-22T10:30:20;1.67;;;0.82;;
24151;SDS011;12311;50.866;4.332;2023-12-22T10:32:49;1.77;;;0.90;;
24151;SDS011;12311;50.866;4.332;2023-12-22T10:35:16;3.80;;;0.90;;
24151;SDS011;12311;50.866;4.332;2023-12-22T10:37:45;2.15;;;1.00;;
24151;SDS011;12311;50.866;4.332;2023-12-22T10:40:12;1.40;;;0.90;;
24151;SDS011;12311;50.866;4.332;2023-12-22T10:42:39;1.92;;;1.05;;
24151;SDS011;12311;50.866;4.332;2023-12-22T10:45:06;2.28;;;1.08;;
24151;SDS011;12311;50.866;4.332;2023-12-22T10:47:32;4.30;;;1.15;;
24151;SDS011;12311;50.866;4.332;2023-12-22T10:50:01;1.40;;;0.82;;
24151;SDS011;12311;50.866;4.332;2023-12-22T10:52:29;2.35;;;0.85;;
24151;SDS011;12311;50.866;4.332;2023-12-22T10:54:56;1.25;;;0.70;;
24151;SDS011;12311;50.866;4.332;2023-12-22T10:57:22;1.33;;;0.80;;
24151;SDS011;12311;50.866;4.332;2023-12-22T10:59:48;1.10;;;0.68;;
24151;SDS011;12311;50.866;4.332;2023-12-22T11:02:16;1.13;;;0.60;;
24151;SDS011;12311;50.866;4.332;2023-12-22T11:04:46;1.58;;;0.60;;
24151;SDS011;12311;50.866;4.332;2023-12-22T11:07:22;2.15;;;0.63;;
24151;SDS011;12311;50.866;4.332;2023-12-22T11:09:50;2.15;;;0.70;;
24151;SDS011;12311;50.866;4.332;2023-12-22T11:12:19;2.72;;;0.60;;
24151;SDS011;12311;50.866;4.332;2023-12-22T11:14:45;1.95;;;0.50;;
24151;SDS011;12311;50.866;4.332;2023-12-22T11:17:17;1.92;;;0.60;;
24151;SDS011;12311;50.866;4.332;2023-12-22T11:22:16;2.67;;;0.82;;
24151;SDS011;12311;50.866;4.332;2023-12-22T11:24:44;2.92;;;0.70;;
24151;SDS011;12311;50.866;4.332;2023-12-22T11:27:16;1.27;;;0.50;;
24151;SDS011;12311;50.866;4.332;2023-12-22T11:29:49;2.85;;;0.73;;
24151;SDS011;12311;50.866;4.332;2023-12-22T11:32:16;1.70;;;0.63;;
24151;SDS011;12311;50.866;4.332;2023-12-22T11:34:43;1.40;;;0.70;;
24151;SDS011;12311;50.866;4.332;2023-12-22T11:37:14;2.90;;;0.60;;
24151;SDS011;12311;50.866;4.332;2023-12-22T11:39:41;2.08;;;0.70;;
24151;SDS011;12311;50.866;4.332;2023-12-22T11:42:08;0.90;;;0.43;;
24151;SDS011;12311;50.866;4.332;2023-12-22T11:44:57;1.85;;;0.60;;
24151;SDS011;12311;50.866;4.332;2023-12-22T11:47:23;1.58;;;0.60;;
24151;SDS011;12311;50.866;4.332;2023-12-22T11:49:49;1.77;;;0.63;;
24151;SDS011;12311;50.866;4.332;2023-12-22T11:52:18;2.63;;;0.70;;
24151;SDS011;12311;50.866;4.332;2023-12-22T11:54:51;0.85;;;0.60;;
24151;SDS011;12311;50.866;4.332;2023-12-22T11:59:55;1.45;;;0.70;;
24151;SDS011;12311;50.866;4.332;2023-12-22T12:02:21;1.33;;;1.00;;
24151;SDS011;12311;50.866;4.332;2023-12-22T12:04:47;1.92;;;0.88;;
24151;SDS011;12311;50.866;4.332;2023-12-22T12:08:02;1.13;;;0.80;;
24151;SDS011;12311;50.866;4.332;2023-12-22T12:10:09;1.10;;;0.80;;
24151;SDS011;12311;50.866;4.332;2023-12-22T12:12:39;2.05;;;0.80;;
24151;SDS011;12311;50.866;4.332;2023-12-22T12:15:09;0.90;;;0.70;;
24151;SDS011;12311;50.866;4.332;2023-12-22T12:17:42;2.28;;;0.80;;
24151;SDS011;12311;50.866;4.332;2023-12-22T12:20:11;3.20;;;0.68;;
24151;SDS011;12311;50.866;4.332;2023-12-22T12:22:38;3.83;;;0.93;;
24151;SDS011;12311;50.866;4.332;2023-12-22T12:25:10;1.80;;;0.60;;
24151;SDS011;12311;50.866;4.332;2023-12-22T12:27:36;2.22;;;0.60;;
24151;SDS011;12311;50.866;4.332;2023-12-22T12:30:07;1.38;;;0.68;;
24151;SDS011;12311;50.866;4.332;2023-12-22T12:32:39;3.03;;;0.65;;
24151;SDS011;12311;50.866;4.332;2023-12-22T12:35:07;2.70;;;0.77;;
24151;SDS011;12311;50.866;4.332;2023-12-22T12:37:33;1.90;;;0.80;;
24151;SDS011;12311;50.866;4.332;2023-12-22T12:39:59;0.65;;;0.40;;
24151;SDS011;12311;50.866;4.332;2023-12-22T12:42:29;2.63;;;0.50;;
24151;SDS011;12311;50.866;4.332;2023-12-22T12:44:56;0.98;;;0.50;;
24151;SDS011;12311;50.866;4.332;2023-12-22T12:47:22;2.05;;;0.70;;
24151;SDS011;12311;50.866;4.332;2023-12-22T12:49:56;2.00;;;0.65;;
24151;SDS011;12311;50.866;4.332;2023-12-22T12:52:25;0.95;;;0.47;;
24151;SDS011;12311;50.866;4.332;2023-12-22T12:54:51;2.70;;;0.50;;
24151;SDS011;12311;50.866;4.332;2023-12-22T12:57:18;1.98;;;0.70;;
24151;SDS011;12311;50.866;4.332;2023-12-22T12:59:47;3.85;;;0.77;;
24151;SDS011;12311;50.866;4.332;2023-12-22T13:02:17;1.40;;;0.70;;
24151;SDS011;12311;50.866;4.332;2023-12-22T13:04:44;3.40;;;0.90;;
24151;SDS011;12311;50.866;4.332;2023-12-22T13:07:12;0.52;;;0.47;;
24151;SDS011;12311;50.866;4.332;2023-12-22T13:09:38;3.33;;;0.70;;
24151;SDS011;12311;50.866;4.332;2023-12-22T13:12:04;2.25;;;0.60;;
24151;SDS011;12311;50.866;4.332;2023-12-22T13:14:30;4.07;;;0.93;;
24151;SDS011;12311;50.866;4.332;2023-12-22T13:16:57;2.78;;;0.80;;
24151;SDS011;12311;50.866;4.332;2023-12-22T13:19:23;1.95;;;0.60;;
24151;SDS011;12311;50.866;4.332;2023-12-22T13:21:50;1.30;;;0.70;;
24151;SDS011;12311;50.866;4.332;2023-12-22T13:24:17;1.77;;;0.73;;
24151;SDS011;12311;50.866;4.332;2023-12-22T13:26:43;0.82;;;0.70;;
24151;SDS011;12311;50.866;4.332;2023-12-22T13:29:09;1.38;;;0.73;;
24151;SDS011;12311;50.866;4.332;2023-12-22T13:31:36;1.88;;;0.70;;
24151;SDS011;12311;50.866;4.332;2023-12-22T13:34:07;5.88;;;0.70;;
24151;SDS011;12311;50.866;4.332;2023-12-22T13:36:34;2.60;;;0.60;;
24151;SDS011;12311;50.866;4.332;2023-12-22T13:39:07;2.35;;;0.60;;
24151;SDS011;12311;50.866;4.332;2023-12-22T13:41:43;1.10;;;0.70;;
24151;SDS011;12311;50.866;4.332;2023-12-22T13:44:13;4.43;;;0.70;;
24151;SDS011;12311;50.866;4.332;2023-12-22T13:46:39;1.30;;;0.90;;
24151;SDS011;12311;50.866;4.332;2023-12-22T13:49:10;2.13;;;1.00;;
24151;SDS011;12311;50.866;4.332;2023-12-22T13:51:43;4.57;;;0.80;;
24151;SDS011;12311;50.866;4.332;2023-12-22T13:54:10;2.75;;;0.80;;
24151;SDS011;12311;50.866;4.332;2023-12-22T13:56:36;2.50;;;0.70;;
24151;SDS011;12311;50.866;4.332;2023-12-22T13:59:07;2.65;;;0.65;;
24151;SDS011;12311;50.866;4.332;2023-12-22T14:01:34;3.65;;;0.60;;
24151;SDS011;12311;50.866;4.332;2023-12-22T14:04:00;1.58;;;0.60;;
24151;SDS011;12311;50.866;4.332;2023-12-22T14:06:26;0.88;;;0.80;;
24151;SDS011;12311;50.866;4.332;2023-12-22T14:08:55;1.38;;;0.57;;
24151;SDS011;12311;50.866;4.332;2023-12-22T14:11:22;1.20;;;0.90;;
24151;SDS011;12311;50.866;4.332;2023-12-22T14:13:47;1.58;;;0.68;;
24151;SDS011;12311;50.866;4.332;2023-12-22T14:16:14;1.50;;;0.60;;
24151;SDS011;12311;50.866;4.332;2023-12-22T14:18:40;4.97;;;1.13;;
24151;SDS011;12311;50.866;4.332;2023-12-22T14:21:07;3.83;;;0.90;;
24151;SDS011;12311;50.866;4.332;2023-12-22T14:23:32;1.77;;;0.50;;
24151;SDS011;12311;50.866;4.332;2023-12-22T14:25:58;1.52;;;0.60;;
24151;SDS011;12311;50.866;4.332;2023-12-22T14:28:24;1.02;;;0.73;;
24151;SDS011;12311;50.866;4.332;2023-12-22T14:30:49;1.58;;;0.60;;
24151;SDS011;12311;50.866;4.332;2023-12-22T14:33:16;3.35;;;0.60;;
24151;SDS011;12311;50.866;4.332;2023-12-22T14:35:41;2.10;;;0.60;;
24151;SDS011;12311;50.866;4.332;2023-12-22T14:38:07;3.15;;;0.77;;
24151;SDS011;12311;50.866;4.332;2023-12-22T14:40:33;2.10;;;0.70;;
24151;SDS011;12311;50.866;4.332;2023-12-22T14:42:59;3.97;;;0.68;;
24151;SDS011;12311;50.866;4.332;2023-12-22T14:45:27;2.20;;;0.60;;
24151;SDS011;12311;50.866;4.332;2023-12-22T14:47:53;0.45;;;0.40;;
24151;SDS011;12311;50.866;4.332;2023-12-22T14:50:19;1.80;;;0.60;;